Aviation Digital Data Service (ADDS)

Output produced by METARs form (1852 UTC 19 April 2019)
found at http://www.aviationweather.gov/metar/data/
 
Forecast for: ZJSY (SANYA/FENGHUANG , CN)
Text: TAF ZJSY 191500Z 1918/2018 12004MPS 9999 SCT020 TX32/2006Z TN26/1921Z
Forecast period: 1800 UTC 19 April 2019 to 1800 UTC 20 April 2019
Forecast type: FROM: standard forecast or significant change
Winds: from the ESE (120 degrees) at 9 MPH (8 knots; 4.1 m/s)
Visibility: 6 or more miles 10+ km)
Ceiling: at least 12,000 feet AGL
Clouds: scattered clouds at 2000 feet AGL
Weather: no significant weather forecast for this period